createdAt,value
2019-04-14T00:02:27.228Z,9.13
2019-04-14T00:04:57.396Z,9.00
2019-04-14T00:07:27.672Z,8.63
2019-04-14T00:09:58.433Z,8.87
2019-04-14T00:12:28.004Z,9.30
2019-04-14T00:14:57.578Z,9.20
2019-04-14T00:17:28.330Z,8.87
2019-04-14T00:19:58.815Z,9.33
2019-04-14T00:22:30.574Z,9.70
2019-04-14T00:24:59.809Z,8.60
2019-04-14T00:27:30.264Z,8.90
2019-04-14T00:29:59.738Z,9.63
2019-04-14T00:32:31.295Z,9.77
2019-04-14T00:35:18.958Z,9.47
2019-04-14T00:38:20.039Z,9.37
2019-04-14T00:41:04.806Z,9.90
2019-04-14T00:43:57.014Z,10.03
2019-04-14T00:46:38.709Z,9.67
2019-04-14T00:49:09.201Z,8.60
2019-04-14T00:51:40.607Z,9.13
2019-04-14T00:54:10.969Z,9.83
2019-04-14T00:56:41.118Z,9.37
2019-04-14T00:59:11.421Z,9.63
2019-04-14T01:01:41.625Z,9.50
2019-04-14T01:04:12.196Z,9.80
2019-04-14T01:06:42.589Z,10.40
2019-04-14T01:09:15.161Z,9.60
2019-04-14T01:11:44.621Z,9.47
2019-04-14T01:14:14.751Z,9.67
2019-04-14T01:16:45.183Z,10.17
2019-04-14T01:19:15.560Z,9.73
2019-04-14T01:21:45.780Z,10.47
2019-04-14T01:24:16.362Z,9.90
2019-04-14T01:26:46.399Z,9.97
2019-04-14T01:29:16.602Z,9.80
2019-04-14T01:31:47.031Z,9.97
2019-04-14T01:34:17.313Z,9.43
2019-04-14T01:36:47.493Z,9.87
2019-04-14T01:39:17.625Z,9.03
2019-04-14T01:41:47.839Z,10.07
2019-04-14T01:44:17.784Z,10.57
2019-04-14T01:46:47.787Z,10.23
2019-04-14T01:49:17.944Z,9.33
2019-04-14T01:52:23.118Z,10.67
2019-04-14T01:55:17.808Z,10.30
2019-04-14T01:57:54.588Z,10.23
2019-04-14T02:00:42.414Z,10.23
2019-04-14T02:03:12.760Z,9.93
2019-04-14T02:05:43.149Z,9.47
2019-04-14T02:08:13.434Z,10.33
2019-04-14T02:10:43.463Z,10.20
2019-04-14T02:13:13.566Z,10.60
2019-04-14T02:15:44.244Z,9.73
2019-04-14T02:18:14.256Z,10.03
2019-04-14T02:20:44.735Z,10.87
2019-04-14T02:23:14.680Z,10.07
2019-04-14T02:25:45.047Z,10.27
2019-04-14T02:28:15.509Z,9.97
2019-04-14T02:30:52.364Z,9.83
2019-04-14T02:38:49.428Z,10.47
2019-04-14T02:41:18.762Z,10.10
2019-04-14T02:43:51.157Z,9.97
2019-04-14T02:48:50.807Z,10.17
2019-04-14T02:51:23.338Z,10.47
2019-04-14T02:54:05.017Z,10.37
2019-04-14T02:56:21.490Z,10.33
2019-04-14T02:59:03.696Z,10.40
2019-04-14T03:01:34.987Z,10.00
2019-04-14T03:03:48.900Z,9.77
2019-04-14T03:06:26.086Z,10.23
2019-04-14T03:17:03.438Z,9.93
2019-04-14T03:19:35.290Z,10.13
2019-04-14T03:22:18.392Z,10.70
2019-04-14T03:24:39.092Z,10.20
2019-04-14T03:27:54.724Z,10.97
2019-04-14T03:30:57.810Z,9.90
2019-04-14T03:38:15.852Z,10.13
2019-04-14T03:40:41.258Z,10.83
2019-04-14T03:43:24.486Z,9.87
2019-04-14T03:50:45.042Z,10.17
2019-04-14T03:56:02.325Z,10.20
2019-04-14T03:58:29.175Z,10.10
2019-04-14T04:00:59.747Z,10.60
2019-04-14T04:03:30.278Z,10.53
2019-04-14T04:06:00.783Z,10.87
2019-04-14T04:08:31.299Z,10.17
2019-04-14T04:11:01.898Z,9.90
2019-04-14T04:13:32.305Z,10.70
2019-04-14T04:16:20.571Z,10.33
2019-04-14T04:18:58.450Z,10.17
2019-04-14T04:21:40.159Z,10.23
2019-04-14T04:24:30.615Z,10.03
2019-04-14T04:27:11.102Z,10.80
2019-04-14T04:29:48.438Z,10.47
2019-04-14T04:32:27.502Z,10.23
2019-04-14T04:35:17.283Z,10.57
2019-04-14T04:37:56.321Z,11.27
2019-04-14T04:40:29.059Z,10.77
2019-04-14T04:42:59.071Z,10.43
2019-04-14T04:45:28.523Z,11.40
2019-04-14T04:48:00.127Z,10.83
2019-04-14T04:50:30.360Z,10.60
2019-04-14T04:53:00.437Z,11.13
2019-04-14T04:55:30.606Z,10.40
2019-04-14T04:58:01.262Z,10.03
2019-04-14T05:00:30.985Z,9.97
2019-04-14T05:03:01.407Z,9.47
2019-04-14T05:06:06.824Z,9.83
2019-04-14T05:08:39.119Z,9.90
2019-04-14T05:11:23.375Z,9.70
2019-04-14T05:13:57.597Z,10.30
2019-04-14T05:16:28.081Z,9.67
2019-04-14T05:19:11.434Z,9.87
2019-04-14T05:21:29.892Z,9.37
2019-04-14T05:24:00.653Z,9.13
2019-04-14T05:26:30.895Z,9.60
2019-04-14T05:29:01.391Z,9.00
2019-04-14T05:31:32.017Z,9.53
2019-04-14T05:34:02.235Z,9.67
2019-04-14T05:36:32.503Z,9.00
2019-04-14T05:39:03.099Z,9.43
2019-04-14T05:41:33.035Z,9.00
2019-04-14T05:44:03.588Z,9.70
2019-04-14T05:46:33.988Z,9.43
2019-04-14T05:49:04.387Z,9.97
2019-04-14T05:51:35.074Z,8.80
2019-04-14T05:54:05.697Z,8.43
2019-04-14T05:56:37.534Z,8.50
2019-04-14T05:59:06.761Z,8.87
2019-04-14T06:01:36.626Z,9.27
2019-04-14T06:04:07.110Z,8.47
2019-04-14T06:06:36.864Z,8.80
2019-04-14T06:09:08.294Z,8.73
2019-04-14T06:11:37.823Z,8.97
2019-04-14T06:14:07.835Z,8.83
2019-04-14T06:16:37.405Z,9.07
2019-04-14T06:19:06.697Z,8.10
2019-04-14T06:21:36.456Z,9.13
2019-04-14T06:24:05.791Z,8.90
2019-04-14T06:26:35.149Z,8.77
2019-04-14T06:29:04.597Z,8.73
2019-04-14T06:31:52.041Z,9.57
2019-04-14T06:34:26.299Z,9.63
2019-04-14T06:37:27.252Z,8.93
2019-04-14T06:39:56.765Z,8.80
2019-04-14T06:42:26.209Z,8.90
2019-04-14T06:44:55.596Z,9.27
2019-04-14T06:47:25.002Z,9.57
2019-04-14T06:49:54.345Z,10.73
2019-04-14T06:52:23.708Z,14.40
2019-04-14T06:54:53.173Z,9.63
2019-04-14T06:57:22.627Z,9.40
2019-04-14T06:59:51.992Z,10.07
2019-04-14T07:02:21.687Z,9.13
2019-04-14T07:04:51.105Z,9.47
2019-04-14T07:07:20.517Z,8.90
2019-04-14T07:09:49.934Z,9.53
2019-04-14T07:12:19.378Z,9.37
2019-04-14T07:14:48.869Z,9.97
2019-04-14T07:17:18.209Z,9.33
2019-04-14T07:19:47.591Z,10.10
2019-04-14T07:22:16.987Z,9.33
2019-04-14T07:24:46.576Z,9.43
2019-04-14T07:27:15.981Z,8.97
2019-04-14T07:30:00.515Z,8.90
2019-04-14T07:33:00.979Z,9.87
2019-04-14T07:35:52.387Z,10.83
2019-04-14T07:38:26.723Z,8.93
2019-04-14T07:41:15.539Z,9.30
2019-04-14T07:44:09.680Z,9.40
2019-04-14T07:47:07.715Z,8.30
2019-04-14T07:49:48.309Z,9.13
2019-04-14T07:52:30.163Z,8.80
2019-04-14T07:55:13.467Z,9.83
2019-04-14T07:58:02.230Z,9.67
2019-04-14T08:00:34.455Z,8.73
2019-04-14T08:03:12.071Z,9.83
2019-04-14T08:05:41.802Z,8.93
2019-04-14T08:08:11.237Z,8.93
2019-04-14T08:10:40.609Z,9.27
2019-04-14T08:13:10.062Z,9.03
2019-04-14T08:15:39.465Z,11.17
2019-04-14T08:18:08.922Z,12.07
2019-04-14T08:20:38.338Z,9.37
2019-04-14T08:23:07.740Z,9.30
2019-04-14T08:25:40.308Z,8.97
2019-04-14T08:28:09.793Z,9.57
2019-04-14T08:30:39.263Z,8.90
2019-04-14T08:33:08.817Z,9.43
2019-04-14T08:35:38.197Z,9.63
2019-04-14T08:38:07.586Z,8.43
2019-04-14T08:40:37.040Z,9.10
2019-04-14T08:43:26.490Z,9.20
2019-04-14T08:46:13.723Z,8.53
2019-04-14T08:49:01.193Z,8.73
2019-04-14T08:51:42.224Z,8.13
2019-04-14T08:54:25.589Z,8.73
2019-04-14T08:57:01.399Z,8.63
2019-04-14T08:59:49.781Z,8.63
2019-04-14T09:02:41.481Z,9.20
2019-04-14T09:05:36.311Z,9.63
2019-04-14T09:08:10.899Z,9.87
2019-04-14T09:10:42.905Z,8.80
2019-04-14T09:13:12.368Z,8.97
2019-04-14T09:15:41.736Z,8.53
2019-04-14T09:18:11.152Z,9.10
2019-04-14T09:20:51.746Z,7.77
2019-04-14T09:23:12.022Z,7.97
2019-04-14T09:25:41.759Z,8.40
2019-04-14T09:28:11.209Z,8.30
2019-04-14T09:30:40.702Z,8.70
2019-04-14T09:33:10.084Z,8.57
2019-04-14T09:35:39.845Z,7.67
2019-04-14T09:38:09.265Z,8.43
2019-04-14T09:40:38.736Z,8.37
2019-04-14T09:43:08.112Z,8.30
2019-04-14T09:45:37.916Z,8.03
2019-04-14T09:48:07.270Z,8.57
2019-04-14T09:50:36.662Z,8.10
2019-04-14T09:53:06.373Z,8.43
2019-04-14T09:55:36.532Z,8.07
2019-04-14T09:58:05.832Z,9.10
2019-04-14T10:00:37.156Z,7.57
2019-04-14T10:03:06.645Z,7.93
2019-04-14T10:05:36.211Z,8.35
2019-04-14T10:08:05.649Z,7.93
2019-04-14T10:10:35.194Z,7.47
2019-04-14T10:13:04.784Z,8.20
2019-04-14T10:15:34.419Z,8.70
2019-04-14T10:18:03.860Z,7.30
2019-04-14T10:20:33.259Z,7.13
2019-04-14T10:23:02.616Z,8.00
2019-04-14T10:25:32.696Z,7.90
2019-04-14T10:28:02.081Z,7.97
2019-04-14T10:30:31.504Z,8.17
2019-04-14T10:33:00.977Z,7.90
2019-04-14T10:35:30.723Z,8.47
2019-04-14T10:38:00.139Z,7.43
2019-04-14T10:40:29.599Z,7.70
2019-04-14T10:42:58.975Z,8.10
2019-04-14T10:45:28.397Z,8.07
2019-04-14T10:47:57.783Z,7.73
2019-04-14T10:50:30.975Z,8.53
2019-04-14T10:52:59.601Z,8.47
2019-04-14T10:55:29.150Z,8.13
2019-04-14T10:57:58.574Z,8.57
2019-04-14T11:00:28.354Z,8.03
2019-04-14T11:02:57.767Z,9.07
2019-04-14T11:05:28.658Z,7.33
2019-04-14T11:07:58.146Z,8.90
2019-04-14T11:10:27.480Z,7.83
2019-04-14T11:12:56.979Z,8.23
2019-04-14T11:15:26.707Z,8.10
2019-04-14T11:17:56.393Z,8.13
2019-04-14T11:20:25.825Z,7.80
2019-04-14T11:23:03.225Z,8.77
2019-04-14T11:25:26.250Z,8.63
2019-04-14T11:27:56.029Z,7.50
2019-04-14T11:30:25.418Z,7.77
2019-04-14T11:33:18.411Z,7.87
2019-04-14T11:35:56.651Z,8.13
2019-04-14T11:38:35.218Z,8.30
2019-04-14T11:41:08.832Z,7.77
2019-04-14T11:43:38.356Z,7.97
2019-04-14T11:46:07.758Z,8.10
2019-04-14T11:48:56.246Z,8.07
2019-04-14T11:51:25.685Z,8.93
2019-04-14T11:53:55.674Z,8.13
2019-04-14T11:56:25.041Z,8.00
2019-04-14T11:58:54.579Z,7.60
2019-04-14T12:01:44.170Z,7.77
2019-04-14T12:04:26.392Z,7.43
2019-04-14T12:07:13.810Z,7.10
2019-04-14T12:10:05.014Z,7.53
2019-04-14T12:12:34.823Z,7.20
2019-04-14T12:15:07.465Z,9.00
2019-04-14T12:17:35.710Z,9.00
2019-04-14T12:20:06.492Z,7.90
2019-04-14T12:22:36.689Z,6.83
2019-04-14T12:25:07.123Z,6.63
2019-04-14T12:27:36.931Z,7.23
2019-04-14T12:30:11.106Z,6.93
2019-04-14T12:32:41.193Z,6.50
2019-04-14T12:35:11.826Z,6.20
2019-04-14T12:37:41.188Z,6.53
2019-04-14T12:40:10.721Z,5.70
2019-04-14T12:42:49.357Z,6.50
2019-04-14T12:45:36.536Z,7.07
2019-04-14T12:48:33.936Z,6.47
2019-04-14T12:51:06.626Z,6.80
2019-04-14T12:53:36.070Z,6.03
2019-04-14T12:56:05.648Z,6.47
2019-04-14T12:59:06.196Z,6.37
2019-04-14T13:01:39.911Z,6.33
2019-04-14T13:04:09.279Z,7.10
2019-04-14T13:06:38.651Z,6.60
2019-04-14T13:09:08.632Z,6.90
2019-04-14T13:11:37.958Z,5.97
2019-04-14T13:14:07.281Z,6.50
2019-04-14T13:16:36.702Z,6.53
2019-04-14T13:19:06.401Z,6.70
2019-04-14T13:21:35.770Z,7.13
2019-04-14T13:24:05.372Z,6.10
2019-04-14T13:26:34.864Z,5.83
2019-04-14T13:29:05.289Z,7.50
2019-04-14T13:31:34.728Z,6.43
2019-04-14T13:34:04.181Z,6.93
2019-04-14T13:36:33.808Z,7.13
2019-04-14T13:39:05.108Z,6.57
2019-04-14T13:41:34.961Z,6.40
2019-04-14T13:44:04.395Z,6.17
2019-04-14T13:46:33.831Z,7.67
2019-04-14T13:49:03.344Z,6.53
2019-04-14T13:51:32.783Z,7.90
2019-04-14T13:54:02.354Z,11.20
2019-04-14T13:56:32.328Z,10.00
2019-04-14T13:59:01.829Z,9.63
2019-04-14T14:01:34.134Z,9.23
2019-04-14T14:04:03.589Z,19.43
2019-04-14T14:06:33.482Z,12.00
2019-04-14T14:09:04.056Z,9.13
2019-04-14T14:11:46.660Z,7.63
2019-04-14T14:14:34.000Z,13.40
2019-04-14T14:17:10.698Z,8.97
2019-04-14T14:19:45.747Z,8.17
2019-04-14T14:22:24.298Z,8.73
2019-04-14T14:25:12.967Z,8.33
2019-04-14T14:27:42.520Z,10.87
2019-04-14T14:30:14.140Z,8.23
2019-04-14T14:32:43.904Z,8.77
2019-04-14T14:35:13.334Z,7.80
2019-04-14T14:37:42.694Z,7.20
2019-04-14T14:40:12.618Z,7.07
2019-04-14T14:42:42.133Z,5.90
2019-04-14T14:45:29.381Z,6.13
2019-04-14T14:48:13.625Z,6.47
2019-04-14T14:51:05.478Z,6.40
2019-04-14T14:53:35.999Z,6.77
2019-04-14T14:56:05.350Z,6.90
2019-04-14T14:58:34.893Z,7.20
2019-04-14T15:01:06.136Z,6.83
2019-04-14T15:03:35.942Z,7.57
2019-04-14T15:06:05.747Z,8.77
2019-04-14T15:08:35.488Z,7.00
2019-04-14T15:11:05.654Z,6.80
2019-04-14T15:13:35.323Z,8.00
2019-04-14T15:16:04.979Z,7.40
2019-04-14T15:18:34.785Z,7.13
2019-04-14T15:21:04.273Z,7.43
2019-04-14T15:23:33.957Z,7.40
2019-04-14T15:26:03.485Z,6.93
2019-04-14T15:28:33.409Z,7.57
2019-04-14T15:31:02.844Z,7.00
2019-04-14T15:33:32.249Z,7.27
2019-04-14T15:36:01.670Z,7.33
2019-04-14T15:38:31.208Z,6.80
2019-04-14T15:41:00.633Z,7.37
2019-04-14T15:43:30.415Z,6.97
2019-04-14T15:45:59.758Z,6.90
2019-04-14T15:48:29.187Z,7.73
2019-04-14T15:50:58.961Z,6.70
2019-04-14T15:53:37.724Z,6.47
2019-04-14T15:56:00.004Z,7.03
2019-04-14T15:58:36.550Z,6.40
2019-04-14T16:01:24.394Z,6.70
2019-04-14T16:04:19.185Z,6.77
2019-04-14T16:06:58.657Z,6.30
2019-04-14T16:09:36.384Z,6.60
2019-04-14T16:12:24.829Z,6.83
2019-04-14T16:15:22.133Z,11.03
2019-04-14T16:18:09.937Z,7.50
2019-04-14T16:20:41.556Z,10.47
2019-04-14T16:23:11.249Z,8.10
2019-04-14T16:26:14.734Z,7.47
2019-04-14T16:28:49.928Z,7.27
2019-04-14T16:31:45.747Z,6.93
2019-04-14T16:34:49.515Z,7.53
2019-04-14T16:37:19.255Z,6.77
2019-04-14T16:39:48.659Z,6.93
2019-04-14T16:42:18.081Z,7.17
2019-04-14T16:44:47.447Z,6.87
2019-04-14T16:47:16.893Z,7.20
2019-04-14T16:49:46.300Z,8.10
2019-04-14T16:52:29.595Z,8.27
2019-04-14T16:55:21.344Z,10.37
2019-04-14T16:58:10.038Z,9.30
2019-04-14T17:00:42.658Z,7.50
2019-04-14T17:03:12.088Z,8.23
2019-04-14T17:05:42.293Z,8.37
2019-04-14T17:08:12.259Z,10.03
2019-04-14T17:10:41.705Z,7.93
2019-04-14T17:13:11.905Z,8.10
2019-04-14T17:15:49.160Z,7.93
2019-04-14T17:18:43.493Z,8.20
2019-04-14T17:21:30.931Z,7.50
2019-04-14T17:24:15.990Z,7.93
2019-04-14T17:26:42.819Z,8.60
2019-04-14T17:29:23.559Z,7.60
2019-04-14T17:32:11.253Z,9.77
2019-04-14T17:35:02.627Z,11.77
2019-04-14T17:37:49.950Z,9.17
2019-04-14T17:40:32.993Z,9.40
2019-04-14T17:43:21.489Z,8.70
2019-04-14T17:46:06.275Z,8.77
2019-04-14T17:48:54.613Z,10.20
2019-04-14T17:51:36.607Z,9.43
2019-04-14T17:54:14.203Z,9.30
2019-04-14T17:57:02.508Z,9.43
2019-04-14T17:59:38.045Z,10.00
2019-04-14T18:02:21.557Z,14.07
2019-04-14T18:05:18.959Z,11.93
2019-04-14T18:07:58.235Z,9.43
2019-04-14T18:10:34.896Z,13.77
2019-04-14T18:13:38.721Z,12.10
2019-04-14T18:16:36.789Z,12.53
2019-04-14T18:19:17.190Z,11.00
2019-04-14T18:21:46.875Z,17.57
2019-04-14T18:24:16.379Z,11.93
2019-04-14T18:26:45.806Z,10.00
2019-04-14T18:29:36.351Z,9.77
2019-04-14T18:32:33.137Z,10.27
2019-04-14T18:35:21.447Z,9.27
2019-04-14T18:38:12.900Z,9.67
2019-04-14T18:41:19.419Z,12.03
2019-04-14T18:44:16.619Z,11.60
2019-04-14T18:47:16.943Z,12.13
2019-04-14T18:50:11.987Z,11.00
2019-04-14T18:52:58.981Z,13.73
2019-04-14T18:55:47.694Z,13.20
2019-04-14T18:58:40.596Z,11.70
2019-04-14T19:01:16.490Z,10.80
2019-04-14T19:03:45.925Z,10.47
2019-04-14T19:06:15.396Z,10.07
2019-04-14T19:08:44.911Z,10.63
2019-04-14T19:11:30.021Z,10.50
2019-04-14T19:13:59.889Z,10.53
2019-04-14T19:16:39.250Z,11.57
2019-04-14T19:19:04.192Z,12.33
2019-04-14T19:21:33.583Z,10.70
2019-04-14T19:24:03.333Z,11.50
2019-04-14T19:26:32.764Z,12.73
2019-04-14T19:29:02.339Z,13.77
2019-04-14T19:31:31.680Z,11.47
2019-04-14T19:34:01.067Z,10.67
2019-04-14T19:36:30.792Z,10.43
2019-04-14T19:39:00.231Z,14.77
2019-04-14T19:41:37.928Z,11.57
2019-04-14T19:44:07.435Z,11.20
2019-04-14T19:46:36.774Z,10.33
2019-04-14T19:49:06.131Z,9.80
2019-04-14T19:51:35.554Z,9.30
2019-04-14T19:54:05.048Z,11.10
2019-04-14T19:56:34.450Z,10.20
2019-04-14T19:59:03.850Z,9.90
2019-04-14T20:01:33.702Z,9.67
2019-04-14T20:04:03.423Z,11.00
2019-04-14T20:06:33.107Z,10.30
2019-04-14T20:09:02.586Z,10.20
2019-04-14T20:11:32.244Z,10.17
2019-04-14T20:14:01.787Z,10.33
2019-04-14T20:16:59.483Z,9.93
2019-04-14T20:19:46.474Z,10.03
2019-04-14T20:22:37.839Z,10.80
2019-04-14T20:25:33.694Z,9.80
2019-04-14T20:28:03.963Z,11.87
2019-04-14T20:30:46.457Z,10.60
2019-04-14T20:33:15.927Z,10.10
2019-04-14T20:35:45.354Z,9.43
2019-04-14T20:38:15.009Z,9.33
2019-04-14T20:40:44.414Z,9.50
2019-04-14T20:43:13.836Z,10.43
2019-04-14T20:45:43.673Z,9.40
2019-04-14T20:48:13.704Z,9.53
2019-04-14T20:50:43.163Z,9.23
2019-04-14T20:53:12.538Z,9.70
2019-04-14T20:55:47.103Z,9.30
2019-04-14T20:58:12.996Z,8.80
2019-04-14T21:00:42.462Z,9.67
2019-04-14T21:03:32.016Z,8.80
2019-04-14T21:06:15.668Z,9.07
2019-04-14T21:09:02.576Z,8.97
2019-04-14T21:11:37.658Z,8.63
2019-04-14T21:14:35.074Z,9.27
2019-04-14T21:17:17.218Z,8.90
2019-04-14T21:19:55.397Z,8.73
2019-04-14T21:22:37.540Z,8.73
2019-04-14T21:25:35.883Z,8.53
2019-04-14T21:28:23.038Z,8.07
2019-04-14T21:31:17.416Z,8.33
2019-04-14T21:34:03.131Z,8.13
2019-04-14T21:36:51.652Z,8.47
2019-04-14T21:39:49.035Z,8.07
2019-04-14T21:42:19.030Z,8.33
2019-04-14T21:44:48.350Z,8.00
2019-04-14T21:47:18.188Z,7.70
2019-04-14T21:49:47.590Z,7.57
2019-04-14T21:52:36.252Z,8.67
2019-04-14T21:55:06.102Z,7.60
2019-04-14T21:58:00.408Z,7.77
2019-04-14T22:01:30.430Z,7.37
2019-04-14T22:04:12.994Z,7.30
2019-04-14T22:06:43.016Z,7.80
2019-04-14T22:09:22.157Z,7.60
2019-04-14T22:11:51.696Z,7.60
2019-04-14T22:14:21.124Z,7.70
2019-04-14T22:16:50.950Z,7.17
2019-04-14T22:19:20.724Z,7.47
2019-04-14T22:21:50.049Z,7.60
2019-04-14T22:24:19.475Z,7.53
2019-04-14T22:26:48.894Z,7.63
2019-04-14T22:29:18.454Z,7.07
2019-04-14T22:31:47.924Z,6.90
2019-04-14T22:34:17.330Z,7.00
2019-04-14T22:36:46.788Z,7.80
2019-04-14T22:39:17.040Z,7.40
2019-04-14T22:41:46.476Z,7.57
2019-04-14T22:44:15.892Z,7.23
2019-04-14T22:46:45.218Z,7.77
2019-04-14T22:49:15.028Z,7.13
2019-04-14T22:51:44.392Z,7.53
2019-04-14T22:54:14.106Z,7.60
2019-04-14T22:56:43.564Z,6.77
2019-04-14T22:59:12.871Z,7.23
2019-04-14T23:01:45.164Z,7.57
2019-04-14T23:04:30.531Z,7.70
2019-04-14T23:07:17.496Z,7.60
2019-04-14T23:09:55.704Z,7.30
2019-04-14T23:12:33.098Z,7.50
2019-04-14T23:15:22.392Z,7.40
2019-04-14T23:18:06.128Z,7.80
2019-04-14T23:20:47.720Z,7.43
2019-04-14T23:23:48.378Z,7.50
2019-04-14T23:26:17.775Z,7.60
2019-04-14T23:28:47.130Z,7.30
2019-04-14T23:31:16.512Z,7.57
2019-04-14T23:33:45.940Z,7.63
2019-04-14T23:36:15.371Z,7.30
2019-04-14T23:38:44.746Z,7.37
2019-04-14T23:41:14.166Z,7.90
2019-04-14T23:43:43.497Z,7.07
2019-04-14T23:46:12.919Z,7.33
2019-04-14T23:48:42.324Z,7.23
2019-04-14T23:51:11.696Z,7.73
2019-04-14T23:53:41.052Z,7.00
2019-04-14T23:56:10.468Z,7.57
2019-04-14T23:58:39.897Z,7.63
